createdAt,value
2022-10-06T00:00:28.984Z,92
2022-10-06T00:05:17.215Z,92
2022-10-06T00:10:23.349Z,92
2022-10-06T00:15:29.150Z,92
2022-10-06T00:20:18.154Z,92
2022-10-06T00:25:24.239Z,92
2022-10-06T00:30:30.227Z,92
2022-10-06T00:35:19.662Z,92
2022-10-06T00:40:25.341Z,92
2022-10-06T00:45:31.419Z,92
2022-10-06T00:50:20.486Z,92
2022-10-06T00:55:26.523Z,92
2022-10-06T01:00:33.595Z,92
2022-10-06T01:05:21.366Z,92
2022-10-06T01:10:27.445Z,92
2022-10-06T01:15:16.637Z,92
2022-10-06T01:20:22.739Z,92
2022-10-06T01:25:28.943Z,92
2022-10-06T01:30:17.941Z,92
2022-10-06T01:35:23.952Z,92
2022-10-06T01:40:29.997Z,92
2022-10-06T01:45:19.057Z,92
2022-10-06T01:50:25.101Z,92
2022-10-06T01:55:31.151Z,92
2022-10-06T02:00:20.218Z,92
2022-10-06T02:05:26.196Z,92
2022-10-06T02:10:32.159Z,92
2022-10-06T02:15:21.328Z,92
2022-10-06T02:20:27.445Z,92
2022-10-06T02:25:16.529Z,92
2022-10-06T02:30:22.550Z,92
2022-10-06T02:35:28.629Z,92
2022-10-06T02:40:17.918Z,92
2022-10-06T02:45:23.832Z,92
2022-10-06T02:50:29.814Z,92
2022-10-06T02:55:19.813Z,92
2022-10-06T03:00:24.936Z,92
2022-10-06T03:05:30.325Z,92
2022-10-06T03:10:19.269Z,92
2022-10-06T03:15:25.040Z,92
2022-10-06T03:20:33.920Z,92
2022-10-06T03:25:20.200Z,92
2022-10-06T03:30:26.239Z,92
2022-10-06T03:35:32.336Z,92
2022-10-06T03:40:21.424Z,92
2022-10-06T03:45:27.485Z,92
2022-10-06T03:50:16.450Z,92
2022-10-06T03:55:22.531Z,93
2022-10-06T04:00:28.594Z,93
2022-10-06T04:05:17.481Z,93
2022-10-06T04:10:23.554Z,93
2022-10-06T04:15:29.765Z,93
2022-10-06T04:20:18.832Z,93
2022-10-06T04:25:24.953Z,93
2022-10-06T04:30:30.947Z,93
2022-10-06T04:35:20.038Z,93
2022-10-06T04:40:26.236Z,93
2022-10-06T04:45:32.295Z,93
2022-10-06T04:50:21.165Z,93
2022-10-06T04:55:27.264Z,93
2022-10-06T05:00:33.304Z,93
2022-10-06T05:05:22.193Z,93
2022-10-06T05:10:31.334Z,93
2022-10-06T05:15:17.452Z,93
2022-10-06T05:20:23.540Z,93
2022-10-06T05:25:29.595Z,93
2022-10-06T05:30:18.603Z,93
2022-10-06T05:35:24.723Z,93
2022-10-06T05:40:30.918Z,93
2022-10-06T05:45:19.833Z,93
2022-10-06T05:50:25.943Z,93
2022-10-06T05:55:31.925Z,93
2022-10-06T06:00:20.991Z,93
2022-10-06T06:05:27.038Z,93
2022-10-06T06:10:33.167Z,93
2022-10-06T06:15:21.203Z,93
2022-10-06T06:20:27.311Z,93
2022-10-06T06:25:16.340Z,93
2022-10-06T06:30:22.382Z,93
2022-10-06T06:35:28.455Z,93
2022-10-06T06:40:17.521Z,93
2022-10-06T06:45:23.479Z,93
2022-10-06T06:50:29.538Z,93
2022-10-06T06:55:18.597Z,93
2022-10-06T07:00:24.814Z,93
2022-10-06T07:05:30.562Z,93
2022-10-06T07:10:19.696Z,93
2022-10-06T07:25:25.077Z,93
2022-10-06T07:30:25.941Z,93
2022-10-06T07:35:32.263Z,93
2022-10-06T07:40:21.049Z,93
2022-10-06T07:45:27.153Z,92
2022-10-06T07:50:16.633Z,92
2022-10-06T07:55:23.082Z,92
2022-10-06T08:00:28.385Z,92
2022-10-06T08:05:17.572Z,92
2022-10-06T08:10:23.678Z,92
2022-10-06T08:15:29.725Z,91
2022-10-06T08:20:20.830Z,91
2022-10-06T08:25:24.390Z,90
2022-10-06T08:30:30.220Z,90
2022-10-06T08:35:19.238Z,88
2022-10-06T08:40:25.318Z,87
2022-10-06T08:45:33.974Z,87
2022-10-06T08:50:20.476Z,87
2022-10-06T08:55:26.541Z,87
2022-10-06T09:00:32.559Z,87
2022-10-06T09:05:23.625Z,87
2022-10-06T09:10:26.988Z,86
2022-10-06T09:15:15.976Z,86
2022-10-06T09:20:22.100Z,85
2022-10-06T09:25:29.027Z,84
2022-10-06T09:30:17.978Z,83
2022-10-06T09:35:23.824Z,82
2022-10-06T09:40:29.983Z,82
2022-10-06T09:45:19.041Z,80
2022-10-06T09:50:25.045Z,79
2022-10-06T09:55:31.140Z,79
2022-10-06T10:00:20.183Z,79
2022-10-06T10:05:25.533Z,79
2022-10-06T10:10:31.592Z,78
2022-10-06T10:15:20.593Z,78
2022-10-06T10:20:26.657Z,76
2022-10-06T10:25:32.726Z,75
2022-10-06T10:30:21.435Z,75
2022-10-06T10:35:27.545Z,75
2022-10-06T10:40:16.765Z,73
2022-10-06T10:45:22.725Z,73
2022-10-06T10:50:28.740Z,72
2022-10-06T10:55:17.781Z,72
2022-10-06T11:00:23.841Z,71
2022-10-06T11:05:29.971Z,70
2022-10-06T11:10:18.272Z,70
2022-10-06T11:15:24.306Z,69
2022-10-06T11:20:30.349Z,69
2022-10-06T11:25:19.130Z,68
2022-10-06T11:30:25.318Z,67
2022-10-06T11:35:31.245Z,66
2022-10-06T11:40:20.320Z,66
2022-10-06T11:45:26.579Z,65
2022-10-06T11:50:32.371Z,64
2022-10-06T11:55:21.408Z,64
2022-10-06T12:00:27.499Z,64
2022-10-06T12:05:54.417Z,61
2022-10-06T12:10:21.927Z,62
2022-10-06T12:17:11.515Z,64
2022-10-06T12:20:17.021Z,63
2022-10-06T12:25:23.825Z,64
2022-10-06T12:30:30.199Z,62
2022-10-06T12:35:18.857Z,61
2022-10-06T12:40:24.982Z,59
2022-10-06T12:45:31.041Z,57
2022-10-06T12:50:20.021Z,56
2022-10-06T12:55:26.104Z,56
2022-10-06T13:00:32.184Z,55
2022-10-06T13:05:20.475Z,55
2022-10-06T13:10:26.576Z,56
2022-10-06T13:15:33.036Z,54
2022-10-06T13:20:21.654Z,54
2022-10-06T13:25:27.514Z,53
2022-10-06T13:30:16.528Z,52
2022-10-06T13:35:22.684Z,52
2022-10-06T13:40:43.398Z,52
2022-10-06T13:45:17.683Z,52
2022-10-06T13:50:23.851Z,53
2022-10-06T13:55:29.842Z,53
2022-10-06T14:00:19.008Z,52
2022-10-06T14:05:24.336Z,50
2022-10-06T14:10:30.432Z,50
2022-10-06T14:15:19.313Z,49
2022-10-06T14:20:25.387Z,47
2022-10-06T14:25:31.471Z,47
2022-10-06T14:30:20.544Z,45
2022-10-06T14:35:26.609Z,45
2022-10-06T14:40:32.671Z,44
2022-10-06T14:45:21.662Z,44
2022-10-06T14:50:27.716Z,45
2022-10-06T14:55:16.827Z,44
2022-10-06T15:00:23.010Z,44
2022-10-06T15:05:28.235Z,44
2022-10-06T15:10:17.235Z,43
2022-10-06T15:15:23.325Z,42
2022-10-06T15:20:29.352Z,42
2022-10-06T15:25:18.139Z,42
2022-10-06T15:30:24.377Z,42
2022-10-06T15:35:30.344Z,42
2022-10-06T15:40:19.433Z,42
2022-10-06T15:45:25.356Z,42
2022-10-06T15:50:31.456Z,44
2022-10-06T15:55:20.596Z,46
2022-10-06T16:00:29.761Z,46
2022-10-06T16:05:32.059Z,49
2022-10-06T16:10:20.986Z,56
2022-10-06T16:15:26.975Z,63
2022-10-06T16:20:16.136Z,67
2022-10-06T16:25:21.959Z,70
2022-10-06T16:30:27.966Z,73
2022-10-06T16:35:18.423Z,75
2022-10-06T16:40:23.214Z,76
2022-10-06T16:45:29.122Z,78
2022-10-06T16:50:18.082Z,80
2022-10-06T16:55:24.209Z,81
2022-10-06T17:00:30.360Z,82
2022-10-06T17:05:19.560Z,83
2022-10-06T17:10:25.692Z,84
2022-10-06T17:15:33.680Z,84
2022-10-06T17:20:20.741Z,85
2022-10-06T17:25:26.680Z,85
2022-10-06T17:30:32.550Z,86
2022-10-06T17:35:21.555Z,86
2022-10-06T17:40:27.801Z,86
2022-10-06T17:45:21.057Z,86
2022-10-06T17:50:22.767Z,87
2022-10-06T17:55:28.822Z,87
2022-10-06T18:00:18.675Z,87
2022-10-06T18:05:23.273Z,87
2022-10-06T18:10:29.321Z,88
2022-10-06T18:15:18.283Z,88
2022-10-06T18:20:24.345Z,88
2022-10-06T18:25:30.161Z,88
2022-10-06T18:30:19.154Z,89
2022-10-06T18:36:16.143Z,89
2022-10-06T18:40:31.475Z,89
2022-10-06T18:45:20.412Z,89
2022-10-06T18:50:26.417Z,89
2022-10-06T18:55:32.542Z,89
2022-10-06T19:00:21.560Z,89
2022-10-06T19:05:26.944Z,89
2022-10-06T19:10:16.048Z,90
2022-10-06T19:15:22.042Z,90
2022-10-06T19:20:28.071Z,90
2022-10-06T19:25:17.857Z,90
2022-10-06T19:30:23.836Z,90
2022-10-06T19:35:30.060Z,90
2022-10-06T19:40:18.964Z,90
2022-10-06T19:45:25.334Z,90
2022-10-06T19:50:31.098Z,90
2022-10-06T19:55:20.150Z,90
2022-10-06T20:00:26.244Z,90
2022-10-06T20:05:31.905Z,90
2022-10-06T20:10:20.563Z,90
2022-10-06T20:15:26.662Z,90
2022-10-06T20:20:33.211Z,90
2022-10-06T20:25:21.442Z,90
2022-10-06T20:30:27.538Z,91
2022-10-06T20:35:16.543Z,91
2022-10-06T20:40:22.637Z,91
2022-10-06T20:45:28.826Z,91
2022-10-06T20:50:18.106Z,91
2022-10-06T20:55:27.168Z,91
2022-10-06T21:00:29.889Z,91
2022-10-06T21:05:18.191Z,91
2022-10-06T21:10:25.074Z,91
2022-10-06T21:15:30.348Z,91
2022-10-06T21:20:19.441Z,91
2022-10-06T21:25:25.115Z,91
2022-10-06T21:30:31.231Z,91
2022-10-06T21:35:20.295Z,91
2022-10-06T21:40:26.563Z,91
2022-10-06T21:45:33.240Z,91
2022-10-06T21:50:21.414Z,91
2022-10-06T21:55:27.493Z,91
2022-10-06T22:00:16.573Z,91
2022-10-06T22:05:21.988Z,91
2022-10-06T22:10:27.952Z,91
2022-10-06T22:15:16.962Z,91
2022-10-06T22:20:23.068Z,91
2022-10-06T22:25:29.790Z,91
2022-10-06T22:30:18.882Z,91
2022-10-06T22:35:24.957Z,91
2022-10-06T22:40:31.102Z,91
2022-10-06T22:45:19.976Z,91
2022-10-06T22:50:26.294Z,91
2022-10-06T22:55:32.221Z,91
2022-10-06T23:00:21.285Z,91
2022-10-06T23:05:26.482Z,91
2022-10-06T23:10:32.853Z,91
2022-10-06T23:15:21.566Z,91
2022-10-06T23:20:27.652Z,91
2022-10-06T23:25:16.290Z,91
2022-10-06T23:30:22.362Z,91
2022-10-06T23:35:28.419Z,92
2022-10-06T23:40:17.531Z,92
2022-10-06T23:45:23.690Z,91
2022-10-06T23:50:29.737Z,91
2022-10-06T23:55:18.683Z,92
